Time;durP1;ratioP1;P1;durP2;ratioP2;P2;SDS_P1;SDS_P2;PMS_P1;PMS_P2;Temp;Humidity;BMP_temperature;BMP_pressure;BME280_temperature;BME280_humidity;BME280_pressure;Samples;Min_cycle;Max_cycle;Signal;HPM_P1;HPM_P2
2023/07/23 00:02:11;;;;;;;9.52;6.18;;;;;;;14.89;100.00;100295.25;7750998;22;20410;-96
2023/07/23 00:05:15;;;;;;;8.68;6.43;;;;;;;14.89;100.00;100286.63;7750067;22;20187;-96
2023/07/23 00:08:25;;;;;;;10.05;7.00;;;;;;;14.85;100.00;100286.91;7777072;22;20026;-96
2023/07/23 00:11:29;;;;;;;8.90;7.03;;;;;;;14.83;100.00;100282.81;7724763;22;20023;-96
2023/07/23 00:14:34;;;;;;;9.05;6.32;;;;;;;14.82;100.00;100281.19;7728042;22;20011;-96
2023/07/23 00:17:39;;;;;;;8.95;6.45;;;;;;;14.80;100.00;100267.50;7750062;22;20016;-96
2023/07/23 00:20:41;;;;;;;10.80;6.47;;;;;;;14.83;100.00;100268.03;7750405;22;20031;-96
2023/07/23 00:23:48;;;;;;;10.63;6.60;;;;;;;14.81;100.00;100269.97;7749433;22;20019;-96
2023/07/23 00:26:53;;;;;;;10.13;6.63;;;;;;;14.80;100.00;100262.28;7749961;22;20028;-96
2023/07/23 00:30:05;;;;;;;10.40;6.95;;;;;;;14.79;100.00;100261.47;7750471;22;20012;-96
2023/07/23 00:33:11;;;;;;;9.60;6.65;;;;;;;14.77;100.00;100253.00;7749198;22;20019;-96
2023/07/23 00:36:13;;;;;;;10.80;6.20;;;;;;;14.76;100.00;100248.78;7749036;22;20403;-96
2023/07/23 00:39:18;;;;;;;9.90;5.95;;;;;;;14.74;100.00;100245.50;7749740;22;20035;-96
2023/07/23 00:42:21;;;;;;;8.57;5.53;;;;;;;14.73;100.00;100245.66;7777703;22;20012;-96
2023/07/23 00:45:28;;;;;;;7.90;6.40;;;;;;;14.70;100.00;100236.34;7778204;22;20027;-96
2023/07/23 00:48:32;;;;;;;9.38;6.20;;;;;;;14.68;100.00;100225.25;7726431;22;20028;-96
2023/07/23 00:51:38;;;;;;;10.50;6.18;;;;;;;14.69;100.00;100220.88;7777185;22;20039;-96
2023/07/23 00:54:43;;;;;;;7.80;5.32;;;;;;;14.69;100.00;100215.69;7750314;22;20497;-96
2023/07/23 00:57:45;;;;;;;8.32;6.50;;;;;;;14.69;100.00;100213.06;7749866;22;20019;-96
2023/07/23 01:00:52;;;;;;;11.25;6.50;;;;;;;14.68;100.00;100211.44;7776258;22;20015;-96
2023/07/23 01:04:06;;;;;;;11.88;6.47;;;;;;;14.68;100.00;100208.81;7752185;22;20020;-96
2023/07/23 01:07:17;;;;;;;10.85;6.55;;;;;;;14.67;100.00;100205.41;7723639;22;20023;-96
2023/07/23 01:10:35;;;;;;;8.48;6.07;;;;;;;14.68;100.00;100198.41;7724325;22;20028;-96
2023/07/23 01:13:55;;;;;;;8.13;6.07;;;;;;;14.68;100.00;100194.00;7750679;22;20248;-96
2023/07/23 01:17:01;;;;;;;8.95;6.25;;;;;;;14.68;100.00;100203.59;7727320;22;20031;-96
2023/07/23 01:20:06;;;;;;;12.45;6.07;;;;;;;14.68;100.00;100195.78;7749893;22;20023;-96
2023/07/23 01:23:11;;;;;;;8.05;5.57;;;;;;;14.67;100.00;100197.59;7778108;22;20027;-96
2023/07/23 01:26:20;;;;;;;8.30;6.03;;;;;;;14.66;100.00;100182.94;7726304;22;20259;-96
2023/07/23 01:29:26;;;;;;;10.02;6.10;;;;;;;14.67;100.00;100184.56;7753319;22;20024;-96
2023/07/23 01:32:31;;;;;;;10.82;7.43;;;;;;;14.66;100.00;100182.94;7755720;22;20053;-96
2023/07/23 01:35:38;;;;;;;10.93;7.28;;;;;;;14.64;100.00;100183.09;7756192;22;20046;-96
2023/07/23 01:38:48;;;;;;;9.88;6.78;;;;;;;14.66;100.00;100177.72;7794235;22;20015;-96
2023/07/23 01:41:53;;;;;;;10.55;7.22;;;;;;;14.64;100.00;100177.06;7776241;22;20081;-96
2023/07/23 01:45:06;;;;;;;13.18;7.55;;;;;;;14.65;100.00;100171.69;7756756;22;20154;-96
2023/07/23 01:48:12;;;;;;;14.13;8.23;;;;;;;14.67;100.00;100163.72;7754602;22;20020;-96
2023/07/23 01:51:34;;;;;;;11.57;6.97;;;;;;;14.64;100.00;100153.63;7730153;22;20019;-96
2023/07/23 01:54:37;;;;;;;9.45;6.47;;;;;;;14.67;100.00;100157.69;7727689;22;20255;-96
2023/07/23 01:57:44;;;;;;;11.75;7.90;;;;;;;14.63;100.00;100152.81;7752057;22;20016;-96
2023/07/23 02:00:47;;;;;;;10.07;7.38;;;;;;;14.61;100.00;100149.53;7726732;22;20016;-96
2023/07/23 02:03:52;;;;;;;12.18;8.13;;;;;;;14.62;100.00;100151.16;7725153;22;20026;-96
2023/07/23 02:07:04;;;;;;;11.77;8.25;;;;;;;14.61;100.00;100151.34;7752513;22;20122;-96
2023/07/23 02:10:11;;;;;;;14.15;8.82;;;;;;;14.64;100.00;100158.84;7727543;22;20431;-96
2023/07/23 02:13:14;;;;;;;12.85;8.90;;;;;;;14.64;100.00;100154.44;7751966;22;20012;-96
2023/07/23 02:16:22;;;;;;;14.48;9.30;;;;;;;14.64;100.00;100149.22;7726174;22;20436;-96
2023/07/23 02:19:25;;;;;;;12.18;8.75;;;;;;;14.65;100.00;100140.41;7778606;22;20094;-96
2023/07/23 02:22:32;;;;;;;18.00;9.25;;;;;;;14.67;100.00;100148.09;7751137;22;20154;-96
2023/07/23 02:25:37;;;;;;;13.15;8.90;;;;;;;14.71;100.00;100138.16;7725985;22;20054;-96
2023/07/23 02:28:43;;;;;;;15.48;8.80;;;;;;;14.72;100.00;100134.59;7751686;22;20023;-96
2023/07/23 02:31:45;;;;;;;16.15;9.52;;;;;;;14.75;100.00;100129.06;7777723;22;20140;-96
2023/07/23 02:34:48;;;;;;;14.02;8.95;;;;;;;14.75;100.00;100119.44;7725802;22;20023;-96
2023/07/23 02:37:51;;;;;;;17.10;9.68;;;;;;;14.77;100.00;100116.69;7726087;22;20485;-96
2023/07/23 02:41:01;;;;;;;17.38;8.98;;;;;;;14.78;100.00;100111.34;7725547;22;20034;-96
2023/07/23 02:44:04;;;;;;;;;;;;;;;14.80;100.00;100109.38;7726187;22;20465;-96
2023/07/23 02:47:12;;;;;;;13.73;8.93;;;;;;;14.77;100.00;100098.47;7778172;22;20247;-96
2023/07/23 02:50:18;;;;;;;14.32;9.38;;;;;;;14.74;100.00;100094.38;7751472;22;20430;-96
2023/07/23 02:53:22;;;;;;;14.45;8.43;;;;;;;14.74;100.00;100094.38;7726219;22;20027;-96
2023/07/23 02:56:25;;;;;;;14.50;8.57;;;;;;;14.77;100.00;100095.84;7724885;22;20024;-96
2023/07/23 02:59:27;;;;;;;15.90;9.00;;;;;;;14.71;100.00;100091.25;7778412;22;20016;-96
2023/07/23 03:02:35;;;;;;;12.68;8.65;;;;;;;14.68;100.00;100086.38;7726607;22;20023;-96
2023/07/23 03:05:42;;;;;;;21.33;9.80;;;;;;;14.65;100.00;100090.94;7725585;22;20132;-96
2023/07/23 03:08:45;;;;;;;14.60;9.00;;;;;;;14.64;100.00;100086.69;7777670;22;20460;-96
2023/07/23 03:11:47;;;;;;;12.70;8.18;;;;;;;14.67;100.00;100066.53;7724914;22;20093;-96
2023/07/23 03:14:55;;;;;;;12.77;8.80;;;;;;;14.63;100.00;100074.66;7725675;22;20027;-96
2023/07/23 03:18:05;;;;;;;14.15;8.25;;;;;;;14.61;100.00;100073.19;7750995;22;20051;-96
2023/07/23 03:21:09;;;;;;;13.90;8.10;;;;;;;14.60;100.00;100077.56;7726654;22;20019;-96
2023/07/23 03:24:18;;;;;;;12.95;8.73;;;;;;;14.53;100.00;100067.91;7778206;22;20065;-96
2023/07/23 03:27:21;;;;;;;16.70;8.68;;;;;;;14.52;100.00;100076.69;7751077;22;20015;-96
2023/07/23 03:30:30;;;;;;;10.93;7.88;;;;;;;14.50;100.00;100068.22;7750773;22;20022;-96
2023/07/23 03:33:34;;;;;;;14.40;8.53;;;;;;;14.53;100.00;100057.50;7751097;22;20481;-96
2023/07/23 03:36:44;;;;;;;13.52;8.00;;;;;;;14.53;100.00;100057.50;7776625;22;20234;-96
2023/07/23 03:39:46;;;;;;;12.57;8.50;;;;;;;14.50;100.00;100058.63;7749131;22;20619;-96
2023/07/23 03:42:49;;;;;;;14.82;8.23;;;;;;;14.53;100.00;100057.50;7777006;22;20016;-96
2023/07/23 03:45:52;;;;;;;14.40;8.20;;;;;;;14.51;100.00;100052.47;7776630;22;20016;-96
2023/07/23 03:48:55;;;;;;;14.50;8.70;;;;;;;14.53;100.00;100047.06;7748998;22;20485;-96
2023/07/23 03:51:59;;;;;;;15.02;7.63;;;;;;;14.55;100.00;100047.75;7777169;22;20365;-96
2023/07/23 03:55:04;;;;;;;12.02;8.43;;;;;;;14.56;100.00;100037.19;7776970;22;20016;-96
2023/07/23 03:58:09;;;;;;;14.45;8.13;;;;;;;14.60;100.00;100038.50;7749866;22;20023;-96
2023/07/23 04:01:13;;;;;;;13.13;8.52;;;;;;;14.63;100.00;100032.16;7749359;22;20020;-96
2023/07/23 04:04:16;;;;;;;11.63;7.82;;;;;;;14.64;100.00;100024.19;7749473;22;20024;-96
2023/07/23 04:07:21;;;;;;;12.32;7.80;;;;;;;14.68;100.00;100018.66;7725530;22;20015;-96
2023/07/23 04:10:24;;;;;;;11.40;7.90;;;;;;;14.65;100.00;100017.97;7748939;22;20023;-96
2023/07/23 04:13:29;;;;;;;16.95;8.32;;;;;;;14.68;100.00;100009.03;7749370;22;20446;-96
2023/07/23 04:16:34;;;;;;;13.07;8.00;;;;;;;14.67;100.00;100011.81;7776384;22;20369;-96
2023/07/23 04:19:37;;;;;;;14.35;7.57;;;;;;;14.63;100.00;100011.31;7749278;22;20027;-96
2023/07/23 04:22:39;;;;;;;13.98;7.60;;;;;;;14.64;100.00;99994.72;7749777;22;20097;-96
2023/07/23 04:25:41;;;;;;;12.32;7.55;;;;;;;14.69;100.00;99979.41;7775902;22;20188;-96
2023/07/23 04:28:45;;;;;;;14.25;7.85;;;;;;;14.72;100.00;99993.91;7749014;22;20446;-96
2023/07/23 04:31:48;;;;;;;13.52;7.68;;;;;;;14.74;100.00;99992.78;7749217;22;20012;-96
2023/07/23 04:34:50;;;;;;;9.77;7.65;;;;;;;14.75;100.00;99983.16;7749035;22;20329;-95
2023/07/23 04:37:56;;;;;;;13.02;8.43;;;;;;;14.78;100.00;99980.22;7748358;22;20046;-96
2023/07/23 04:40:58;;;;;;;14.05;7.78;;;;;;;14.77;100.00;99987.22;7749797;22;20358;-96
2023/07/23 04:44:01;;;;;;;12.65;8.25;;;;;;;14.79;100.00;99980.06;7776412;22;20020;-96
2023/07/23 04:47:04;;;;;;;12.35;7.95;;;;;;;14.80;100.00;99975.66;7748646;22;20026;-96
2023/07/23 04:50:07;;;;;;;12.27;7.47;;;;;;;14.85;100.00;99981.22;7775671;22;20049;-96
2023/07/23 04:53:11;;;;;;;10.40;7.13;;;;;;;14.86;100.00;99969.84;7748640;22;20131;-96
2023/07/23 04:56:13;;;;;;;15.35;8.43;;;;;;;14.94;100.00;99969.00;7748099;22;20666;-96
2023/07/23 04:59:16;;;;;;;11.77;7.85;;;;;;;15.01;100.00;99973.41;7724095;22;20471;-96
2023/07/23 05:02:19;;;;;;;14.88;7.15;;;;;;;15.14;100.00;99969.50;7751331;22;20385;-96
2023/07/23 05:05:22;;;;;;;13.73;7.53;;;;;;;15.23;100.00;99963.28;7751572;22;20016;-96
2023/07/23 05:08:25;;;;;;;14.38;8.50;;;;;;;15.24;100.00;99957.91;7751719;22;20030;-96
2023/07/23 05:11:28;;;;;;;10.45;7.57;;;;;;;15.24;100.00;99947.47;7777945;22;20020;-96
2023/07/23 05:14:31;;;;;;;11.35;7.07;;;;;;;15.20;100.00;99953.16;7778787;22;20413;-96
2023/07/23 05:17:33;;;;;;;15.35;8.07;;;;;;;15.18;100.00;99952.53;7778278;22;20020;-96
2023/07/23 05:20:36;;;;;;;11.98;7.68;;;;;;;15.16;100.00;99955.31;7751229;22;20023;-96
2023/07/23 05:23:38;;;;;;;11.55;7.22;;;;;;;15.13;100.00;99945.22;7751393;22;20023;-96
2023/07/23 05:26:43;;;;;;;13.25;7.03;;;;;;;15.12;100.00;99943.56;7752109;22;20016;-96
2023/07/23 05:29:45;;;;;;;11.77;7.22;;;;;;;15.12;100.00;99933.16;7750737;22;20023;-96
2023/07/23 05:32:48;;;;;;;10.38;7.30;;;;;;;15.12;100.00;99932.34;7750758;22;20026;-96
2023/07/23 05:35:49;;;;;;;11.48;7.78;;;;;;;15.14;100.00;99935.59;7777435;22;20480;-96
2023/07/23 05:38:51;;;;;;;11.48;7.60;;;;;;;15.23;100.00;99929.41;7778119;22;20054;-96
2023/07/23 05:41:53;;;;;;;11.48;7.00;;;;;;;15.36;100.00;99927.09;7778047;22;20449;-96
2023/07/23 05:44:55;;;;;;;11.02;7.30;;;;;;;15.53;100.00;99920.03;7726742;22;20023;-96
2023/07/23 05:47:57;;;;;;;12.30;7.07;;;;;;;15.76;100.00;99911.50;7778601;22;20499;-96
2023/07/23 05:50:59;;;;;;;13.27;7.38;;;;;;;15.99;100.00;99901.09;7750910;22;20452;-96
2023/07/23 05:54:02;;;;;;;13.90;7.20;;;;;;;16.17;100.00;99891.19;7751707;22;20026;-96
2023/07/23 05:57:05;;;;;;;14.32;6.80;;;;;;;16.42;100.00;99889.25;7752001;22;20079;-96
2023/07/23 06:00:07;;;;;;;9.05;6.05;;;;;;;16.66;100.00;99874.34;7751032;22;20019;-96
2023/07/23 06:03:15;;;;;;;13.52;6.55;;;;;;;16.87;100.00;99866.66;7752037;22;20039;-96
2023/07/23 06:06:17;;;;;;;9.27;5.82;;;;;;;17.04;100.00;99861.25;7778545;22;20351;-96
2023/07/23 06:09:19;;;;;;;7.43;5.30;;;;;;;17.22;100.00;99852.06;7777534;22;20026;-96
2023/07/23 06:12:21;;;;;;;9.73;5.50;;;;;;;17.37;100.00;99846.81;7750363;22;20011;-96
2023/07/23 06:15:24;;;;;;;10.48;6.35;;;;;;;17.45;100.00;99832.84;7750397;22;20097;-96
2023/07/23 06:18:26;;;;;;;11.95;6.57;;;;;;;17.50;100.00;99835.72;7777883;22;20045;-96
2023/07/23 06:21:28;;;;;;;8.43;5.90;;;;;;;17.50;100.00;99830.47;7750867;22;20020;-96
2023/07/23 06:24:31;;;;;;;9.35;6.18;;;;;;;17.63;100.00;99832.44;7750328;22;20043;-96
2023/07/23 06:27:33;;;;;;;12.00;5.90;;;;;;;17.77;100.00;99828.97;7749744;22;20026;-96
2023/07/23 06:30:36;;;;;;;10.27;6.18;;;;;;;17.96;100.00;99824.16;7777070;22;20030;-96
2023/07/23 06:33:37;;;;;;;11.90;5.70;;;;;;;18.08;100.00;99818.22;7749672;22;20031;-96
2023/07/23 06:36:40;;;;;;;10.52;5.63;;;;;;;18.18;100.00;99814.47;7750193;22;20615;-96
2023/07/23 06:39:42;;;;;;;8.15;5.40;;;;;;;18.30;100.00;99810.34;7749310;22;20024;-96
2023/07/23 06:42:44;;;;;;;8.50;5.30;;;;;;;18.44;100.00;99800.81;7745143;22;20031;-96
2023/07/23 06:45:48;;;;;;;6.85;5.65;;;;;;;18.59;100.00;99809.38;7779100;22;20016;-96
2023/07/23 06:48:50;;;;;;;9.63;4.85;;;;;;;18.71;100.00;99807.84;7778296;22;20335;-96
2023/07/23 06:51:52;;;;;;;8.60;5.50;;;;;;;18.82;100.00;99798.66;7754704;22;20027;-96
2023/07/23 06:54:55;;;;;;;8.85;4.97;;;;;;;19.01;100.00;99789.28;7779545;22;20457;-96
2023/07/23 06:57:57;;;;;;;9.15;5.03;;;;;;;19.18;100.00;99800.28;7777815;22;20019;-96
2023/07/23 07:00:59;;;;;;;6.22;4.55;;;;;;;19.28;100.00;99787.59;7750450;22;20362;-96
2023/07/23 07:04:01;;;;;;;8.45;4.13;;;;;;;19.34;100.00;99780.75;7751687;22;20050;-96
2023/07/23 07:07:04;;;;;;;6.68;4.70;;;;;;;19.38;100.00;99774.09;7752087;22;20468;-96
2023/07/23 07:10:07;;;;;;;9.43;4.72;;;;;;;19.46;100.00;99773.91;7779665;22;20026;-96
2023/07/23 07:13:10;;;;;;;4.80;3.88;;;;;;;19.55;100.00;99767.50;7752172;22;20024;-96
2023/07/23 07:16:16;;;;;;;7.22;4.10;;;;;;;19.70;100.00;99766.50;7780167;22;20020;-96
2023/07/23 07:19:18;;;;;;;5.97;4.07;;;;;;;19.90;100.00;99764.75;7752291;22;20024;-96
2023/07/23 07:22:20;;;;;;;6.90;4.18;;;;;;;20.11;100.00;99762.94;7778790;22;20581;-96
2023/07/23 07:25:22;;;;;;;7.40;4.15;;;;;;;20.29;100.00;99755.22;7779026;22;20438;-96
2023/07/23 07:28:25;;;;;;;5.38;3.75;;;;;;;20.33;100.00;99760.91;7751596;22;20023;-96
2023/07/23 07:31:27;;;;;;;7.88;4.10;;;;;;;20.33;100.00;99759.06;7778734;22;20030;-96
2023/07/23 07:34:31;;;;;;;5.93;3.92;;;;;;;20.34;100.00;99760.69;7779009;22;20142;-96
2023/07/23 07:37:33;;;;;;;8.02;4.40;;;;;;;20.43;100.00;99756.84;7751770;22;20502;-96
2023/07/23 07:40:39;;;;;;;6.30;3.90;;;;;;;20.61;100.00;99750.97;7751466;22;20038;-96
2023/07/23 07:43:41;;;;;;;8.50;3.92;;;;;;;20.80;100.00;99754.56;7752844;22;20050;-96
2023/07/23 07:46:43;;;;;;;5.03;3.70;;;;;;;20.82;100.00;99752.53;7751924;22;20023;-96
2023/07/23 07:49:45;;;;;;;5.55;3.95;;;;;;;20.85;100.00;99751.31;7727092;22;20135;-96
2023/07/23 07:52:47;;;;;;;5.28;3.90;;;;;;;20.87;100.00;99744.03;7779207;22;20318;-96
2023/07/23 07:55:49;;;;;;;4.65;3.65;;;;;;;20.89;100.00;99751.69;7779357;22;20026;-96
2023/07/23 07:58:52;;;;;;;8.40;4.15;;;;;;;20.93;100.00;99752.91;7753262;22;20016;-96
2023/07/23 08:01:54;;;;;;;6.80;3.70;;;;;;;20.91;100.00;99752.31;7751743;22;20023;-96
2023/07/23 08:04:56;;;;;;;5.88;3.90;;;;;;;20.96;100.00;99737.50;7779687;22;20020;-96
2023/07/23 08:07:59;;;;;;;4.72;3.78;;;;;;;21.08;100.00;99735.03;7778800;22;20425;-96
2023/07/23 08:11:04;;;;;;;5.05;3.80;;;;;;;21.21;100.00;99739.41;7751243;22;20026;-96
2023/07/23 08:14:08;;;;;;;6.05;4.07;;;;;;;21.49;100.00;99736.47;7779122;22;20022;-96
2023/07/23 08:17:11;;;;;;;4.00;3.20;;;;;;;21.76;100.00;99729.19;7778741;22;20358;-96
2023/07/23 08:20:13;;;;;;;5.10;3.90;;;;;;;21.78;100.00;99729.78;7725870;22;20101;-96
2023/07/23 08:23:16;;;;;;;4.05;3.30;;;;;;;21.85;100.00;99733.19;7778637;22;20020;-96
2023/07/23 08:26:20;;;;;;;5.45;3.75;;;;;;;21.97;100.00;99737.75;7725991;22;20030;-96
2023/07/23 08:29:25;;;;;;;5.25;3.40;;;;;;;22.01;100.00;99736.28;7778766;22;20016;-96
2023/07/23 08:32:30;;;;;;;6.03;3.65;;;;;;;21.96;100.00;99738.78;7751845;22;20058;-96
2023/07/23 08:35:33;;;;;;;4.68;3.45;;;;;;;21.90;100.00;99738.59;7778748;22;20453;-96
2023/07/23 08:38:35;;;;;;;5.13;3.85;;;;;;;21.92;100.00;99733.94;7779253;22;20528;-96
2023/07/23 08:42:05;;;;;;;4.55;3.88;;;;;;;22.03;100.00;99732.41;7752560;22;20019;-96
2023/07/23 08:45:37;;;;;;;4.87;3.80;;;;;;;22.12;100.00;99739.03;7752305;22;20023;-96
2023/07/23 08:49:09;;;;;;;5.25;3.42;;;;;;;22.28;100.00;99739.53;7779267;22;20019;-96
2023/07/23 08:52:14;;;;;;;5.22;3.58;;;;;;;22.23;100.00;99744.66;7750668;22;20028;-96
2023/07/23 08:55:17;;;;;;;5.65;3.75;;;;;;;22.31;100.00;99733.81;7751348;22;20019;-96
2023/07/23 08:58:20;;;;;;;7.45;3.78;;;;;;;22.44;100.00;99740.81;7752238;22;20015;-96
2023/07/23 09:01:23;;;;;;;5.57;3.30;;;;;;;22.47;100.00;99738.53;7778731;22;20020;-96
2023/07/23 09:04:26;;;;;;;5.93;3.65;;;;;;;22.51;100.00;99741.56;7751771;22;20019;-96
2023/07/23 09:07:29;;;;;;;4.13;3.58;;;;;;;22.40;100.00;99737.81;7751722;22;20031;-96
2023/07/23 09:10:31;;;;;;;4.22;3.35;;;;;;;22.35;100.00;99740.28;7751200;22;20020;-96
2023/07/23 09:13:35;;;;;;;5.22;3.50;;;;;;;22.41;100.00;99739.44;7751667;22;20024;-96
2023/07/23 09:16:39;;;;;;;5.13;3.40;;;;;;;22.40;100.00;99737.81;7778083;22;20376;-96
2023/07/23 09:19:41;;;;;;;3.92;3.40;;;;;;;22.44;100.00;99730.28;7779198;22;20015;-96
2023/07/23 09:22:43;;;;;;;5.22;3.60;;;;;;;22.61;100.00;99735.75;7777916;22;20015;-96
2023/07/23 09:25:46;;;;;;;4.30;3.30;;;;;;;22.79;100.00;99739.22;7777890;22;20024;-96
2023/07/23 09:28:50;;;;;;;8.63;3.97;;;;;;;23.11;100.00;99739.06;7751326;22;20024;-96
2023/07/23 09:31:52;;;;;;;6.18;3.60;;;;;;;23.35;100.00;99728.59;7778405;22;20510;-96
2023/07/23 09:34:56;;;;;;;6.10;3.45;;;;;;;23.43;100.00;99728.28;7778998;22;20019;-96
2023/07/23 09:38:00;;;;;;;4.50;3.33;;;;;;;23.51;100.00;99729.81;7725739;22;20023;-96
2023/07/23 09:41:01;;;;;;;5.00;3.58;;;;;;;23.56;100.00;99714.88;7751211;22;20021;-96
2023/07/23 09:44:14;;;;;;;3.20;2.90;;;;;;;23.55;100.00;99734.41;7777698;22;20445;-96
2023/07/23 09:47:27;;;;;;;5.63;3.00;;;;;;;23.41;100.00;99731.16;7778031;22;20041;-96
2023/07/23 09:50:29;;;;;;;;;;;;;;;23.26;100.00;99730.75;7753181;22;20023;-96
2023/07/23 09:53:31;;;;;;;3.83;2.55;;;;;;;23.13;100.00;99739.66;7780221;22;19919;-96
2023/07/23 09:56:35;;;;;;;2.83;2.40;;;;;;;23.06;100.00;99730.22;7727619;22;20047;-96
2023/07/23 09:59:38;;;;;;;3.38;2.55;;;;;;;22.99;100.00;99727.66;7781221;22;20020;-95
2023/07/23 10:02:41;;;;;;;4.28;2.30;;;;;;;22.97;100.00;99724.38;7779478;22;20114;-96
2023/07/23 10:05:44;;;;;;;4.93;2.40;;;;;;;23.15;100.00;99723.56;7752401;22;20030;-96
2023/07/23 10:08:48;;;;;;;3.72;2.20;;;;;;;23.23;100.00;99728.56;7780131;22;20445;-96
2023/07/23 10:11:50;;;;;;;4.47;2.67;;;;;;;23.22;100.00;99727.72;7780285;22;20043;-96
2023/07/23 10:14:52;;;;;;;2.92;2.30;;;;;;;23.47;100.00;99739.19;7780181;22;20338;-96
2023/07/23 10:18:01;;;;;;;3.38;2.28;;;;;;;23.57;100.00;99734.97;7752199;22;20469;-95
2023/07/23 10:21:06;;;;;;;2.83;2.20;;;;;;;23.63;100.00;99735.94;7780181;22;20019;-96
2023/07/23 10:24:08;;;;;;;2.45;2.00;;;;;;;23.38;100.00;99736.09;7780168;22;20428;-96
2023/07/23 10:27:12;;;;;;;4.60;2.42;;;;;;;23.24;100.00;99732.81;7779676;22;20450;-96
2023/07/23 10:30:18;;;;;;;2.97;2.20;;;;;;;23.08;100.00;99744.81;7752392;22;20066;-96
2023/07/23 10:33:28;;;;;;;3.47;2.50;;;;;;;23.00;100.00;99758.28;7753295;22;20350;-96
2023/07/23 10:36:29;;;;;;;2.80;2.20;;;;;;;22.95;100.00;99748.34;7780235;22;20126;-96
2023/07/23 10:40:03;;;;;;;3.85;2.40;;;;;;;22.89;100.00;99751.09;7748764;22;20022;-96
2023/07/23 10:43:12;;;;;;;2.60;2.20;;;;;;;22.63;100.00;99752.19;7696807;23;20095;-96
2023/07/23 10:46:18;;;;;;;4.35;2.58;;;;;;;22.49;100.00;99752.31;7672269;23;20031;-96
2023/07/23 10:49:23;;;;;;;8.05;2.40;;;;;;;22.43;100.00;99744.47;7696980;23;20021;-96
2023/07/23 10:52:29;;;;;;;3.35;2.17;;;;;;;22.29;100.00;99736.69;7696376;23;20028;-96
2023/07/23 10:55:47;;;;;;;4.15;2.55;;;;;;;22.33;100.00;99737.88;7696419;23;20524;-96
2023/07/23 10:58:54;;;;;;;4.53;3.05;;;;;;;22.34;100.00;99736.03;7670992;23;20035;-96
2023/07/23 11:01:57;;;;;;;2.75;2.10;;;;;;;22.36;100.00;99742.72;7698160;23;20107;-96
2023/07/23 11:05:01;;;;;;;3.53;2.35;;;;;;;22.18;100.00;99747.09;7697082;23;20100;-95
2023/07/23 11:08:16;;;;;;;8.65;2.42;;;;;;;22.14;100.00;99747.53;7674077;23;20386;-96
2023/07/23 11:11:27;;;;;;;3.92;2.55;;;;;;;22.29;100.00;99759.63;7671610;23;20025;-96
2023/07/23 11:14:32;;;;;;;3.83;2.35;;;;;;;22.41;100.00;99744.72;7698055;23;20048;-96
2023/07/23 11:17:35;;;;;;;6.18;2.55;;;;;;;22.46;100.00;99757.22;7645834;23;20051;-96
2023/07/23 11:20:49;;;;;;;3.05;2.35;;;;;;;22.36;100.00;99755.09;7771996;22;20019;-96
2023/07/23 11:23:55;;;;;;;7.60;2.55;;;;;;;22.16;100.00;99768.44;7776267;22;20016;-96
2023/07/23 11:27:01;;;;;;;5.47;2.42;;;;;;;21.91;100.00;99760.50;7750180;22;20020;-96
2023/07/23 11:30:05;;;;;;;3.97;2.30;;;;;;;21.84;100.00;99768.47;7776551;22;20023;-96
2023/07/23 11:33:12;;;;;;;5.43;2.30;;;;;;;21.86;100.00;99752.41;7750029;22;20020;-96
2023/07/23 11:36:15;;;;;;;6.78;2.42;;;;;;;21.99;100.00;99764.72;7776563;22;20024;-96
2023/07/23 11:39:20;;;;;;;3.42;2.65;;;;;;;21.94;100.00;99766.16;7750288;22;20093;-96
2023/07/23 11:42:23;;;;;;;3.15;2.50;;;;;;;22.00;100.00;99759.22;7748968;22;20020;-95
2023/07/23 11:45:28;;;;;;;3.60;2.30;;;;;;;22.28;100.00;99764.06;7751104;22;20023;-96
2023/07/23 11:48:31;;;;;;;5.78;2.30;;;;;;;22.52;100.00;99753.72;7750266;22;20031;-96
2023/07/23 11:51:33;;;;;;;2.80;2.50;;;;;;;22.78;100.00;99749.97;7764525;22;20023;-96
2023/07/23 11:54:36;;;;;;;3.78;2.63;;;;;;;22.93;100.00;99752.25;7775370;22;20026;-96
2023/07/23 11:57:38;;;;;;;3.65;2.30;;;;;;;22.99;100.00;99752.19;7748935;22;20492;-96
2023/07/23 12:00:45;;;;;;;3.28;2.55;;;;;;;22.95;100.00;99743.06;7776486;22;20023;-96
2023/07/23 12:03:48;;;;;;;4.88;2.50;;;;;;;23.19;100.00;99744.03;7776713;22;20062;-96
2023/07/23 12:06:51;;;;;;;6.30;2.38;;;;;;;23.31;100.00;99753.84;7749890;22;20446;-96
2023/07/23 12:09:54;;;;;;;4.53;2.55;;;;;;;23.27;100.00;99747.41;7776399;22;20345;-96
2023/07/23 12:12:57;;;;;;;3.55;2.35;;;;;;;22.94;100.00;99759.16;7777720;22;20503;-96
2023/07/23 12:15:59;;;;;;;5.35;3.28;;;;;;;22.69;100.00;99757.38;7752081;22;20016;-96
2023/07/23 12:19:13;;;;;;;8.35;2.70;;;;;;;22.65;100.00;99765.97;7778981;22;20038;-96
2023/07/23 12:22:14;;;;;;;4.00;2.63;;;;;;;22.80;100.00;99758.47;7778855;22;20389;-96
2023/07/23 12:25:17;;;;;;;3.75;2.40;;;;;;;22.77;100.00;99757.09;7779063;22;20406;-96
2023/07/23 12:28:19;;;;;;;3.47;2.45;;;;;;;22.82;100.00;99759.06;7726423;22;20484;-96
2023/07/23 12:31:24;;;;;;;4.05;2.50;;;;;;;22.99;100.00;99756.69;7752194;22;20023;-96
2023/07/23 12:34:27;;;;;;;5.13;2.70;;;;;;;23.22;100.00;99761.25;7751876;22;20023;-95
2023/07/23 12:37:31;;;;;;;4.22;2.20;;;;;;;23.34;100.00;99756.84;7778999;22;20106;-96
2023/07/23 12:40:34;;;;;;;4.85;1.92;;;;;;;23.12;100.00;99772.34;7778789;22;20019;-96
2023/07/23 12:43:38;;;;;;;5.45;2.28;;;;;;;22.83;100.00;99776.53;7752211;22;20020;-96
2023/07/23 12:46:40;;;;;;;3.80;1.30;;;;;;;22.99;100.00;99775.16;7778246;22;20012;-96
2023/07/23 12:49:42;;;;;;;2.42;1.17;;;;;;;22.95;100.00;99769.47;7779358;22;20016;-95
2023/07/23 12:52:44;;;;;;;2.08;1.20;;;;;;;23.02;100.00;99782.63;7777638;22;20020;-95
2023/07/23 12:55:46;;;;;;;1.83;1.50;;;;;;;23.12;100.00;99787.38;7750528;22;20020;-96
2023/07/23 12:58:48;;;;;;;3.03;1.30;;;;;;;23.09;100.00;99783.38;7751551;22;20016;-96
2023/07/23 13:01:50;;;;;;;2.92;1.55;;;;;;;22.82;100.00;99784.66;7751707;22;20583;-96
2023/07/23 13:04:52;;;;;;;5.05;1.67;;;;;;;22.81;100.00;99791.78;7778219;22;20027;-96
2023/07/23 13:07:56;;;;;;;2.65;1.60;;;;;;;22.79;100.00;99784.06;7752324;22;20015;-95
2023/07/23 13:10:58;;;;;;;1.88;1.52;;;;;;;23.01;100.00;99786.31;7778108;22;20019;-94
2023/07/23 13:14:00;;;;;;;1.67;1.25;;;;;;;23.03;100.00;99788.72;7779448;22;20461;-96
2023/07/23 13:17:03;;;;;;;2.38;1.63;;;;;;;22.98;100.00;99782.28;7727574;22;20031;-96
2023/07/23 13:20:05;;;;;;;2.08;1.30;;;;;;;23.08;100.00;99775.66;7779462;22;20022;-96
2023/07/23 13:23:08;;;;;;;2.00;1.65;;;;;;;23.20;100.00;99785.28;7729921;22;20023;-96
2023/07/23 13:26:11;;;;;;;3.08;1.73;;;;;;;22.95;100.00;99793.22;7754233;22;20224;-96
2023/07/23 13:29:14;;;;;;;3.70;1.50;;;;;;;22.78;100.00;99779.00;7752457;22;20020;-96
2023/07/23 13:32:18;;;;;;;2.92;1.80;;;;;;;22.61;100.00;99788.50;7752156;22;20031;-96
2023/07/23 13:35:20;;;;;;;1.90;1.40;;;;;;;22.43;100.00;99789.31;7753804;22;20453;-96
2023/07/23 13:38:23;;;;;;;4.18;1.70;;;;;;;22.30;100.00;99796.31;7754728;22;20020;-96
2023/07/23 13:41:25;;;;;;;1.83;1.60;;;;;;;22.09;100.00;99797.47;7752764;22;20020;-96
2023/07/23 13:44:27;;;;;;;2.55;1.50;;;;;;;21.91;100.00;99800.03;7781361;22;20775;-96
2023/07/23 13:47:29;;;;;;;2.20;1.70;;;;;;;21.83;100.00;99795.81;7780970;22;20016;-96
2023/07/23 13:50:32;;;;;;;2.70;1.70;;;;;;;21.80;100.00;99787.53;7753920;22;20488;-96
2023/07/23 13:53:51;;;;;;;6.95;1.50;;;;;;;21.70;100.00;99790.63;7780941;22;20019;-96
2023/07/23 13:56:53;;;;;;;2.95;1.95;;;;;;;21.49;100.00;99795.22;7728411;22;20027;-96
2023/07/23 13:59:57;;;;;;;1.98;1.50;;;;;;;21.38;100.00;99787.13;7780671;22;20122;-96
2023/07/23 14:02:59;;;;;;;2.25;1.55;;;;;;;21.33;100.00;99800.94;7754403;22;20043;-96
2023/07/23 14:06:01;;;;;;;3.03;1.60;;;;;;;21.18;100.00;99806.44;7754118;22;20019;-96
2023/07/23 14:09:03;;;;;;;2.22;1.80;;;;;;;20.92;100.00;99814.41;7782088;22;20319;-96
2023/07/23 14:12:05;;;;;;;2.10;1.75;;;;;;;20.84;100.00;99808.38;7781108;22;20201;-96